Time;durP1;ratioP1;P1;durP2;ratioP2;P2;SDS_P1;SDS_P2;PMS_P1;PMS_P2;Temp;Humidity;BMP_temperature;BMP_pressure;BME280_temperature;BME280_humidity;BME280_pressure;Samples;Min_cycle;Max_cycle;Signal;HPM_P1;HPM_P2
2022/03/03 00:01:05;;;;;;;46.50;19.33;;;0.80;74.20;;;;;;5054312;28;20304;-85
2022/03/03 00:03:32;;;;;;;55.17;20.90;;;0.70;77.60;;;;;;5054511;28;20213;-85
2022/03/03 00:05:59;;;;;;;46.77;19.40;;;0.70;79.00;;;;;;5044943;28;20222;-86
2022/03/03 00:08:28;;;;;;;34.47;15.90;;;0.70;78.10;;;;;;5043381;28;20229;-84
2022/03/03 00:10:57;;;;;;;34.20;15.43;;;0.60;78.60;;;;;;5041904;28;20327;-85
2022/03/03 00:13:24;;;;;;;29.83;14.67;;;0.50;79.50;;;;;;5047946;28;20291;-85
2022/03/03 00:15:51;;;;;;;31.13;14.53;;;0.30;78.40;;;;;;5050390;28;20241;-85
2022/03/03 00:18:18;;;;;;;34.87;16.43;;;0.10;77.40;;;;;;5034444;28;20253;-86
2022/03/03 00:20:45;;;;;;;35.27;16.03;;;-0.10;78.90;;;;;;5057210;28;20226;-84
2022/03/03 00:23:12;;;;;;;30.70;14.37;;;-0.10;79.90;;;;;;5044484;28;20220;-86
2022/03/03 00:25:41;;;;;;;27.27;14.53;;;-0.10;80.50;;;;;;5056380;28;20277;-84
2022/03/03 00:28:08;;;;;;;23.70;13.47;;;0.00;84.30;;;;;;5036309;28;20266;-85
2022/03/03 00:30:36;;;;;;;22.97;13.97;;;0.30;81.50;;;;;;5042389;28;20235;-84
2022/03/03 00:33:03;;;;;;;21.33;13.33;;;0.40;83.40;;;;;;5043703;28;20208;-85
2022/03/03 00:35:30;;;;;;;18.93;12.17;;;0.60;82.00;;;;;;5032859;28;20222;-84
2022/03/03 00:38:09;;;;;;;21.50;12.80;;;0.70;78.70;;;;;;5052460;28;20192;-84
2022/03/03 00:40:41;;;;;;;22.77;12.77;;;0.60;79.10;;;;;;5029273;28;20238;-83
2022/03/03 00:46:09;;;;;;;22.63;12.73;;;0.60;80.00;;;;;;5039427;28;20638;-84
2022/03/03 00:48:46;;;;;;;19.53;12.60;;;0.60;79.10;;;;;;5042796;28;20220;-85
2022/03/03 00:51:13;;;;;;;21.00;12.87;;;0.70;81.00;;;;;;5041019;28;20236;-83
2022/03/03 00:53:40;;;;;;;20.63;11.93;;;0.50;77.70;;;;;;5043113;28;20217;-84
2022/03/03 00:56:07;;;;;;;19.73;12.67;;;0.20;76.80;;;;;;5038926;28;20750;-83
2022/03/03 00:58:36;;;;;;;19.30;12.37;;;0.00;77.60;;;;;;5041995;28;20204;-84
2022/03/03 01:01:02;;;;;;;19.90;11.73;;;0.00;82.30;;;;;;5039719;28;20223;-84
2022/03/03 01:03:40;;;;;;;22.50;12.73;;;0.10;81.30;;;;;;5041566;28;20232;-83
2022/03/03 01:06:13;;;;;;;21.47;12.37;;;0.30;84.90;;;;;;5027294;28;20266;-83
2022/03/03 01:08:41;;;;;;;22.03;12.43;;;0.60;86.20;;;;;;5041639;28;20224;-84
2022/03/03 01:11:10;;;;;;;16.70;11.77;;;0.60;78.90;;;;;;5029317;28;20315;-84
2022/03/03 01:13:52;;;;;;;23.20;12.00;;;0.40;80.10;;;;;;5025782;28;20234;-84
2022/03/03 01:16:38;;;;;;;19.70;11.80;;;0.60;83.50;;;;;;5035736;28;20230;-84
2022/03/03 01:19:15;;;;;;;19.57;11.43;;;0.60;80.90;;;;;;5042017;28;20658;-84
2022/03/03 01:21:42;;;;;;;15.87;10.77;;;0.50;80.30;;;;;;5015329;28;20223;-84
2022/03/03 01:24:09;;;;;;;17.00;10.83;;;0.40;78.10;;;;;;5042482;28;20240;-86
2022/03/03 01:26:42;;;;;;;21.20;11.80;;;0.00;77.50;;;;;;5041429;28;20315;-85
2022/03/03 01:29:35;;;;;;;19.27;11.30;;;-0.10;81.60;;;;;;5029768;28;20193;-84
2022/03/03 01:32:10;;;;;;;17.40;10.90;;;-0.20;81.00;;;;;;5031081;28;20215;-86
2022/03/03 01:35:20;;;;;;;22.57;12.20;;;-0.30;82.20;;;;;;5041777;28;20263;-86
2022/03/03 01:37:47;;;;;;;20.13;11.93;;;-0.20;83.00;;;;;;4966547;28;20225;-85
2022/03/03 01:40:14;;;;;;;19.27;11.60;;;-0.30;83.20;;;;;;4989498;28;20319;-84
2022/03/03 01:43:08;;;;;;;16.60;11.23;;;-0.20;85.70;;;;;;5016328;28;20231;-84
2022/03/03 01:45:37;;;;;;;17.83;11.03;;;-0.10;82.80;;;;;;5033289;28;20238;-84
2022/03/03 01:48:07;;;;;;;18.30;12.17;;;0.00;85.80;;;;;;5029578;28;20232;-83
2022/03/03 01:50:35;;;;;;;19.23;11.23;;;0.30;84.40;;;;;;5060104;28;20293;-88
2022/03/03 01:53:02;;;;;;;16.80;11.07;;;0.20;81.00;;;;;;5035502;28;20282;-86
2022/03/03 01:55:30;;;;;;;17.50;11.13;;;0.10;81.10;;;;;;5030193;28;20247;-84
2022/03/03 01:58:33;;;;;;;15.97;11.43;;;0.30;84.50;;;;;;5047370;28;20192;-84
2022/03/03 02:04:30;;;;;;;21.00;11.47;;;0.10;81.70;;;;;;5006026;28;20195;-83
2022/03/03 02:07:29;;;;;;;18.53;10.67;;;0.00;80.90;;;;;;5002552;28;20610;-84
2022/03/03 02:10:17;;;;;;;21.30;11.13;;;-0.20;82.00;;;;;;4978377;28;20292;-86
2022/03/03 02:19:48;;;;;;;17.53;10.37;;;-0.30;82.90;;;;;;4997919;28;20203;-85
2022/03/03 02:32:20;;;;;;;16.73;10.27;;;-0.50;81.60;;;;;;4917855;29;20231;-84
2022/03/03 02:39:12;;;;;;;;;;;;;;;;;;;;;
2022/03/03 02:46:00;;;;;;;16.50;9.97;;;-0.90;85.20;;;;;;4999673;28;20196;-84
2022/03/03 02:48:27;;;;;;;19.30;10.47;;;-0.70;85.90;;;;;;4995839;28;20226;-84
2022/03/03 02:50:57;;;;;;;19.23;11.53;;;-0.40;85.50;;;;;;5048284;28;20202;-88
2022/03/03 03:31:51;;;;;;;14.87;9.03;;;-0.80;85.30;;;;;;4738210;30;20276;-84
2022/03/03 03:48:10;;;;;;;13.53;8.67;;;-1.30;85.00;;;;;;4960692;28;20225;-85
2022/03/03 03:54:08;;;;;;;15.13;8.33;;;-1.50;84.80;;;;;;4965159;29;20598;-86
2022/03/03 03:59:20;;;;;;;14.33;8.83;;;-1.40;87.50;;;;;;4948570;28;20779;-87
2022/03/03 04:01:47;;;;;;;15.37;8.03;;;-1.30;86.20;;;;;;4955623;28;20743;-85
2022/03/03 04:04:17;;;;;;;15.77;9.03;;;-1.30;85.00;;;;;;4984782;28;20207;-84
2022/03/03 04:06:45;;;;;;;14.67;9.23;;;-1.30;85.00;;;;;;5044429;28;20227;-87
2022/03/03 04:09:13;;;;;;;13.97;8.93;;;-1.40;84.90;;;;;;5026815;28;20225;-84
2022/03/03 04:12:08;;;;;;;16.30;9.73;;;-1.50;84.80;;;;;;5044326;28;20226;-84
2022/03/03 04:15:03;;;;;;;13.90;9.07;;;-1.50;85.60;;;;;;5007035;28;20223;-84
2022/03/03 04:17:32;;;;;;;14.37;8.73;;;-1.50;84.80;;;;;;5037267;28;20214;-84
2022/03/03 04:20:00;;;;;;;13.87;8.70;;;-1.50;84.80;;;;;;5041596;28;20234;-85
2022/03/03 04:22:27;;;;;;;14.67;8.83;;;-1.70;84.80;;;;;;5052503;28;20315;-83
2022/03/03 04:24:54;;;;;;;12.97;8.57;;;-1.90;84.60;;;;;;5036265;28;20246;-84
2022/03/03 04:37:32;;;;;;;13.77;9.17;;;-1.70;87.20;;;;;;4920184;29;20226;-86
2022/03/03 04:40:00;;;;;;;14.77;8.63;;;-1.50;86.10;;;;;;5026491;28;20723;-85
2022/03/03 04:42:27;;;;;;;13.23;7.97;;;-1.40;87.20;;;;;;5043140;28;20241;-86
2022/03/03 04:44:54;;;;;;;16.17;8.67;;;-1.40;84.90;;;;;;5009374;28;20234;-86
2022/03/03 04:47:21;;;;;;;13.40;8.37;;;-1.40;85.00;;;;;;5021808;28;20249;-85
2022/03/03 04:49:49;;;;;;;13.60;8.20;;;-1.60;84.80;;;;;;5037726;28;20739;-84
2022/03/03 04:52:16;;;;;;;13.47;9.13;;;-1.90;84.60;;;;;;5027468;28;20289;-84
2022/03/03 04:54:45;;;;;;;12.03;8.60;;;-2.20;86.10;;;;;;5042352;28;20289;-85
2022/03/03 04:57:12;;;;;;;17.20;9.63;;;-2.10;89.30;;;;;;5025668;28;20204;-85
2022/03/03 04:59:39;;;;;;;13.30;8.70;;;-2.20;87.20;;;;;;5021644;28;20586;-86
2022/03/03 05:02:11;;;;;;;14.43;9.37;;;-2.30;87.50;;;;;;5042820;28;20227;-86
2022/03/03 05:04:38;;;;;;;14.30;8.60;;;-2.30;88.60;;;;;;5023454;28;20257;-84
2022/03/03 05:07:05;;;;;;;15.43;8.90;;;-2.10;90.20;;;;;;5042885;28;20288;-84
2022/03/03 05:09:32;;;;;;;13.77;8.83;;;-1.90;88.10;;;;;;5041345;28;20205;-88
2022/03/03 05:12:01;;;;;;;15.27;9.40;;;-2.00;87.40;;;;;;5041539;28;20201;-83
2022/03/03 05:14:28;;;;;;;13.07;9.13;;;-2.10;87.40;;;;;;5045984;28;20249;-85
2022/03/03 05:16:55;;;;;;;15.30;9.30;;;-2.20;88.20;;;;;;5029246;28;20203;-86
2022/03/03 05:19:35;;;;;;;16.00;9.03;;;-2.20;90.10;;;;;;5039462;28;20212;-88
2022/03/03 05:22:02;;;;;;;12.60;8.73;;;-1.80;90.50;;;;;;5033044;28;20233;-86
2022/03/03 05:24:29;;;;;;;12.53;8.53;;;-1.60;88.70;;;;;;5046415;28;20238;-87
2022/03/03 05:26:58;;;;;;;12.17;8.30;;;-1.70;86.30;;;;;;5049763;28;20285;-86
2022/03/03 05:29:30;;;;;;;12.30;8.80;;;-1.50;88.90;;;;;;5047086;28;20274;-86
2022/03/03 05:31:58;;;;;;;11.60;8.33;;;-1.40;88.10;;;;;;5047666;28;20206;-85
2022/03/03 05:34:27;;;;;;;14.30;9.30;;;-1.20;86.50;;;;;;5046787;28;20221;-86
2022/03/03 05:36:55;;;;;;;14.87;8.60;;;-1.20;85.10;;;;;;5029858;28;20217;-86
2022/03/03 05:39:30;;;;;;;14.03;9.10;;;-1.20;85.10;;;;;;5045930;28;20206;-85
2022/03/03 05:42:02;;;;;;;15.53;8.37;;;-1.30;83.90;;;;;;5033008;28;20220;-85
2022/03/03 05:44:34;;;;;;;14.03;9.10;;;-1.50;84.80;;;;;;5040534;28;20202;-84
2022/03/03 05:47:03;;;;;;;12.57;8.50;;;-1.50;84.90;;;;;;5032579;28;20246;-84
2022/03/03 05:49:38;;;;;;;13.33;8.97;;;-1.50;84.90;;;;;;5044179;28;20219;-84
2022/03/03 05:52:05;;;;;;;14.40;9.20;;;-1.40;85.00;;;;;;5042272;28;20212;-84
2022/03/03 05:54:32;;;;;;;16.20;10.27;;;-1.50;84.80;;;;;;5022110;28;20217;-84
2022/03/03 05:57:13;;;;;;;16.27;10.30;;;-1.90;84.70;;;;;;5038459;28;20292;-87
2022/03/03 06:00:03;;;;;;;15.33;9.30;;;-2.00;87.00;;;;;;5035202;28;20281;-88
2022/03/03 06:02:37;;;;;;;19.47;9.87;;;-1.80;90.10;;;;;;5046547;28;20304;-84
2022/03/03 06:05:05;;;;;;;22.83;10.10;;;-1.50;88.60;;;;;;5045360;28;20217;-85
2022/03/03 06:07:39;;;;;;;16.87;9.17;;;-1.30;85.00;;;;;;5039021;28;20263;-84
2022/03/03 06:10:10;;;;;;;17.27;9.90;;;-1.50;84.80;;;;;;5043884;28;20301;-86
2022/03/03 06:12:47;;;;;;;15.57;9.80;;;-1.60;84.80;;;;;;5027911;28;20199;-84
2022/03/03 06:15:30;;;;;;;18.47;9.70;;;-1.60;85.30;;;;;;5044985;28;20325;-86
2022/03/03 06:18:02;;;;;;;14.30;8.80;;;-1.50;85.00;;;;;;5034712;28;20238;-86
2022/03/03 06:20:30;;;;;;;14.50;9.97;;;-1.60;84.80;;;;;;5027901;28;20265;-84
2022/03/03 06:23:01;;;;;;;17.30;10.10;;;-1.50;85.90;;;;;;5028442;28;20328;-85
2022/03/03 06:25:28;;;;;;;18.90;9.83;;;-1.50;86.60;;;;;;5049423;28;20247;-84
2022/03/03 06:27:55;;;;;;;13.33;9.10;;;-1.40;85.00;;;;;;5038481;28;20202;-85
2022/03/03 06:30:24;;;;;;;17.20;9.60;;;-1.40;85.00;;;;;;5046277;28;20302;-86
2022/03/03 06:32:51;;;;;;;15.73;9.47;;;-1.40;85.80;;;;;;5006527;28;20210;-85
2022/03/03 06:35:24;;;;;;;15.47;9.93;;;-1.20;87.70;;;;;;5024755;28;20244;-84
2022/03/03 06:38:03;;;;;;;15.30;9.10;;;-0.80;86.00;;;;;;5047153;28;20198;-88
2022/03/03 06:40:30;;;;;;;13.90;8.67;;;-0.70;83.50;;;;;;5035517;28;20348;-84
2022/03/03 06:43:00;;;;;;;14.77;9.07;;;-0.80;83.80;;;;;;5048057;28;20226;-84
2022/03/03 06:46:21;;;;;;;17.03;9.20;;;-0.90;84.30;;;;;;5048866;28;20290;-85
2022/03/03 06:49:02;;;;;;;15.87;9.27;;;-1.10;83.60;;;;;;5051806;28;20218;-84
2022/03/03 06:51:34;;;;;;;21.13;9.40;;;-1.30;85.00;;;;;;5027552;28;20211;-84
2022/03/03 07:01:06;;;;;;;23.43;10.07;;;-0.50;85.00;;;;;;5037872;28;20241;-83
2022/03/03 07:04:21;;;;;;;14.93;8.93;;;-0.50;84.90;;;;;;5047056;28;20201;-83
2022/03/03 07:06:54;;;;;;;18.03;9.53;;;-0.50;85.50;;;;;;5038360;28;20195;-85
2022/03/03 07:09:24;;;;;;;18.23;10.60;;;-0.50;85.50;;;;;;5044126;28;20202;-85
2022/03/03 07:12:05;;;;;;;15.20;9.43;;;-0.40;85.50;;;;;;5041522;28;20647;-87
2022/03/03 07:14:32;;;;;;;14.37;9.23;;;0.00;85.80;;;;;;5035922;28;20224;-87
2022/03/03 07:17:02;;;;;;;15.90;9.30;;;0.50;85.40;;;;;;5031211;28;20208;-86
2022/03/03 07:20:07;;;;;;;17.37;9.27;;;0.60;81.20;;;;;;5009020;28;20212;-85
2022/03/03 07:26:01;;;;;;;12.10;8.17;;;1.20;77.90;;;;;;5036590;28;20229;-85
2022/03/03 07:28:30;;;;;;;10.97;8.00;;;2.10;75.20;;;;;;5028833;28;20195;-85
2022/03/03 07:31:00;;;;;;;18.17;8.30;;;2.60;67.20;;;;;;5012942;28;20223;-85
2022/03/03 07:33:41;;;;;;;13.70;8.23;;;2.70;65.30;;;;;;5039124;28;20206;-86
2022/03/03 07:36:10;;;;;;;16.27;8.30;;;2.60;64.70;;;;;;5034084;28;20227;-88
2022/03/03 07:38:39;;;;;;;11.17;7.83;;;2.60;67.30;;;;;;5033487;28;20210;-85
2022/03/03 07:41:08;;;;;;;10.37;7.30;;;2.60;61.70;;;;;;5037205;28;20290;-90
2022/03/03 07:43:37;;;;;;;14.60;7.23;;;2.50;59.10;;;;;;5033889;28;20353;-87
2022/03/03 07:46:04;;;;;;;14.93;7.57;;;2.60;61.80;;;;;;5030594;28;20678;-85
2022/03/03 07:48:33;;;;;;;12.60;7.20;;;2.70;58.80;;;;;;5039722;28;20233;-87
2022/03/03 07:51:07;;;;;;;9.90;7.30;;;2.70;57.10;;;;;;5043293;28;20230;-86
2022/03/03 07:53:34;;;;;;;11.43;7.37;;;3.10;59.80;;;;;;5033644;28;20244;-85
2022/03/03 07:56:04;;;;;;;10.83;7.33;;;3.40;56.20;;;;;;5029916;28;20282;-84
2022/03/03 07:58:35;;;;;;;10.70;7.47;;;4.00;52.70;;;;;;5031361;28;20557;-87
2022/03/03 08:01:05;;;;;;;12.33;6.63;;;4.40;48.90;;;;;;5032558;28;20245;-86
2022/03/03 08:03:34;;;;;;;16.40;7.20;;;4.40;46.90;;;;;;5035065;28;20697;-85
2022/03/03 08:06:02;;;;;;;10.00;6.90;;;4.40;45.00;;;;;;5039441;28;20246;-85
2022/03/03 08:08:32;;;;;;;10.90;7.43;;;4.60;43.90;;;;;;5041247;28;20199;-85
2022/03/03 08:11:02;;;;;;;7.97;6.50;;;4.50;45.80;;;;;;5027967;28;20219;-86
2022/03/03 08:13:30;;;;;;;8.03;6.47;;;4.40;43.80;;;;;;5039254;28;20199;-86
2022/03/03 08:15:59;;;;;;;10.63;6.77;;;4.50;44.20;;;;;;5038396;28;20305;-89
2022/03/03 08:18:31;;;;;;;11.37;7.30;;;4.80;44.10;;;;;;5035133;28;20198;-87
2022/03/03 08:21:01;;;;;;;12.57;7.00;;;4.90;40.50;;;;;;5034146;28;20316;-88
2022/03/03 08:23:29;;;;;;;11.37;8.47;;;5.00;39.70;;;;;;5025801;28;20863;-86
2022/03/03 08:25:57;;;;;;;12.80;8.17;;;4.90;39.20;;;;;;5022222;28;20314;-87
2022/03/03 08:28:26;;;;;;;15.30;8.60;;;4.80;41.00;;;;;;5009909;28;20194;-90
2022/03/03 08:30:58;;;;;;;14.23;7.83;;;4.90;41.40;;;;;;5031824;28;20217;-85
2022/03/03 08:33:37;;;;;;;8.50;7.13;;;5.20;44.50;;;;;;5034072;28;20234;-86
2022/03/03 08:36:09;;;;;;;10.17;7.40;;;5.30;40.60;;;;;;5027471;28;20260;-88
2022/03/03 08:38:39;;;;;;;12.23;7.63;;;5.70;41.40;;;;;;5027493;28;20207;-86
2022/03/03 08:41:14;;;;;;;18.67;9.20;;;5.80;39.40;;;;;;5027630;28;20259;-91
2022/03/03 08:43:43;;;;;;;13.53;8.90;;;6.00;36.60;;;;;;5028099;28;20218;-87
2022/03/03 08:46:13;;;;;;;14.87;8.50;;;6.10;35.40;;;;;;5029551;28;20272;-87
2022/03/03 08:48:42;;;;;;;20.65;8.85;;;6.40;35.90;;;;;;5037759;28;20211;-85
2022/03/03 08:51:11;;;;;;;15.93;8.45;;;6.90;34.00;;;;;;5035759;28;20316;-87
2022/03/03 08:53:51;;;;;;;11.15;7.93;;;7.40;32.50;;;;;;5030587;28;20207;-86
2022/03/03 08:56:19;;;;;;;10.65;8.20;;;7.60;30.30;;;;;;5031362;28;20240;-87
2022/03/03 08:58:47;;;;;;;11.52;8.25;;;8.10;31.50;;;;;;5030952;28;20234;-89
2022/03/03 09:01:15;;;;;;;14.52;8.77;;;8.60;28.10;;;;;;5015678;28;20230;-90
2022/03/03 09:03:44;;;;;;;15.90;9.68;;;9.10;27.00;;;;;;5025718;28;20207;-86
2022/03/03 09:06:14;;;;;;;10.50;8.68;;;9.70;24.80;;;;;;5040124;28;20280;-88
2022/03/03 09:08:41;;;;;;;13.70;9.07;;;10.30;23.90;;;;;;5034427;28;20627;-86
2022/03/03 09:18:03;;;;;;;19.90;10.00;;;12.90;18.90;;;;;;5007820;28;20219;-87
2022/03/03 09:20:32;;;;;;;13.77;8.98;;;13.80;17.30;;;;;;4983587;28;20335;-86
2022/03/03 09:23:11;;;;;;;13.38;9.45;;;15.20;15.20;;;;;;4982630;28;20231;-86
2022/03/03 09:25:39;;;;;;;12.55;9.48;;;16.10;13.10;;;;;;5006271;28;20230;-86
2022/03/03 09:28:09;;;;;;;15.30;9.75;;;16.40;13.30;;;;;;5035354;28;20234;-86
2022/03/03 09:30:36;;;;;;;14.45;10.05;;;16.90;12.60;;;;;;5028396;28;20226;-87
2022/03/03 09:33:05;;;;;;;17.40;10.23;;;16.20;11.70;;;;;;5021512;28;20297;-89
2022/03/03 09:35:33;;;;;;;13.23;11.00;;;16.20;11.40;;;;;;5022391;28;20234;-83
2022/03/03 09:38:00;;;;;;;13.50;10.38;;;16.60;12.00;;;;;;5025512;28;20205;-83
2022/03/03 09:40:28;;;;;;;16.83;11.55;;;17.50;11.20;;;;;;5026820;28;20257;-79
2022/03/03 09:43:00;;;;;;;17.40;12.07;;;18.20;9.80;;;;;;5025553;28;20290;-84
2022/03/03 09:45:28;;;;;;;18.10;12.55;;;17.80;9.50;;;;;;5019835;28;20219;-87
2022/03/03 09:47:56;;;;;;;18.33;11.98;;;17.40;9.30;;;;;;5026079;28;20206;-87
2022/03/03 09:50:24;;;;;;;15.63;12.10;;;17.70;9.50;;;;;;5032016;28;20226;-82
2022/03/03 09:52:53;;;;;;;17.30;12.85;;;18.20;9.80;;;;;;5035562;28;20198;-82
2022/03/03 09:55:20;;;;;;;14.35;12.65;;;18.60;10.10;;;;;;5030239;28;20217;-83
2022/03/03 09:57:48;;;;;;;14.10;12.00;;;18.30;9.90;;;;;;5029419;28;20627;-81
2022/03/03 10:00:15;;;;;;;17.02;13.15;;;18.50;10.00;;;;;;5028662;28;20230;-82
2022/03/03 10:02:59;;;;;;;15.20;12.23;;;18.90;10.20;;;;;;5027298;28;20225;-80
2022/03/03 10:05:31;;;;;;;19.60;13.88;;;18.90;10.30;;;;;;5027892;28;20236;-82
2022/03/03 10:08:07;;;;;;;19.27;13.23;;;18.70;10.10;;;;;;5024847;28;20205;-83
2022/03/03 10:10:35;;;;;;;19.60;14.10;;;18.30;9.90;;;;;;5027477;28;20238;-84
2022/03/03 10:13:02;;;;;;;15.43;13.95;;;18.30;9.90;;;;;;5029548;28;20206;-84
2022/03/03 10:15:31;;;;;;;17.83;13.65;;;17.60;9.40;;;;;;5035373;28;20309;-82
2022/03/03 10:18:00;;;;;;;15.60;13.90;;;17.60;9.40;;;;;;5034851;28;20190;-82
2022/03/03 10:20:28;;;;;;;15.57;12.65;;;17.60;9.40;;;;;;5030689;28;21039;-82
2022/03/03 10:22:58;;;;;;;17.65;13.20;;;17.40;9.30;;;;;;5010513;28;20218;-82
2022/03/03 10:25:32;;;;;;;20.05;14.52;;;17.50;9.40;;;;;;5026068;28;20234;-83
2022/03/03 10:28:16;;;;;;;19.45;13.88;;;16.90;10.30;;;;;;5033516;28;20204;-82
2022/03/03 10:30:58;;;;;;;19.08;12.63;;;16.60;9.90;;;;;;5026278;28;20320;-83
2022/03/03 10:33:29;;;;;;;15.00;11.95;;;16.90;10.50;;;;;;5032009;28;20213;-84
2022/03/03 10:36:18;;;;;;;18.10;12.30;;;17.50;9.30;;;;;;5024622;28;20249;-82
2022/03/03 10:38:55;;;;;;;19.85;12.60;;;17.80;9.50;;;;;;5021000;28;20198;-81
2022/03/03 10:41:39;;;;;;;13.88;12.38;;;17.70;9.50;;;;;;5022489;28;20226;-84
2022/03/03 10:44:09;;;;;;;11.82;10.57;;;17.10;9.10;;;;;;5028195;28;20253;-84
2022/03/03 10:46:37;;;;;;;15.27;12.02;;;16.10;8.40;;;;;;5029759;28;20234;-85
2022/03/03 10:49:18;;;;;;;16.83;12.13;;;15.80;8.90;;;;;;5034788;28;20318;-85
2022/03/03 10:51:45;;;;;;;13.35;11.00;;;16.00;8.80;;;;;;5032216;28;20222;-84
2022/03/03 10:54:12;;;;;;;13.95;11.07;;;15.70;8.20;;;;;;5023928;28;20207;-83
2022/03/03 10:56:45;;;;;;;11.05;9.77;;;16.90;9.00;;;;;;5026634;28;20321;-84
2022/03/03 10:59:17;;;;;;;13.05;11.18;;;17.40;9.30;;;;;;5026590;28;20203;-83
2022/03/03 11:01:45;;;;;;;12.10;10.93;;;17.70;9.50;;;;;;5031626;28;20245;-83
2022/03/03 11:04:18;;;;;;;12.45;10.73;;;16.90;8.90;;;;;;5022141;28;20234;-85
2022/03/03 11:06:48;;;;;;;11.48;10.32;;;15.80;8.20;;;;;;5038018;28;20233;-90
2022/03/03 11:09:16;;;;;;;10.25;9.13;;;15.30;7.90;;;;;;5036093;28;20295;-86
2022/03/03 11:11:44;;;;;;;12.45;10.45;;;15.90;8.30;;;;;;5033896;28;20234;-88
2022/03/03 11:14:20;;;;;;;12.43;11.13;;;15.70;8.20;;;;;;5031161;28;20209;-87
2022/03/03 11:17:31;;;;;;;12.60;9.90;;;16.20;8.50;;;;;;5031966;28;20270;-87
2022/03/03 11:47:19;;;;;;;16.15;10.35;;;11.50;14.80;;;;;;4978767;28;20786;-86
2022/03/03 11:50:16;;;;;;;14.70;10.43;;;11.40;13.90;;;;;;4965719;28;20228;-85
2022/03/03 11:52:46;;;;;;;15.90;10.90;;;11.20;14.40;;;;;;4976125;28;20228;-86
2022/03/03 11:56:14;;;;;;;14.30;10.90;;;11.20;15.20;;;;;;4954102;28;20237;-86
2022/03/03 11:58:46;;;;;;;15.60;10.40;;;11.20;14.20;;;;;;4909962;29;20246;-86
2022/03/03 12:01:14;;;;;;;16.38;11.02;;;10.50;14.80;;;;;;4958379;28;20255;-87
2022/03/03 12:04:25;;;;;;;12.77;9.73;;;10.60;14.60;;;;;;4979685;28;20332;-86
2022/03/03 12:06:54;;;;;;;15.23;10.73;;;10.80;14.00;;;;;;5017685;28;20233;-87
2022/03/03 12:09:26;;;;;;;12.00;10.13;;;10.70;15.00;;;;;;5035527;28;20202;-88
2022/03/03 12:12:19;;;;;;;16.05;11.00;;;10.60;15.90;;;;;;5033744;28;20214;-86
2022/03/03 12:14:53;;;;;;;15.90;11.02;;;10.70;14.30;;;;;;5035860;28;20230;-86
2022/03/03 12:17:40;;;;;;;13.13;10.10;;;10.70;15.10;;;;;;5034359;28;20658;-87
2022/03/03 12:20:45;;;;;;;12.27;9.80;;;10.60;14.90;;;;;;5034174;28;20234;-85
2022/03/03 12:23:16;;;;;;;16.85;10.10;;;10.80;14.20;;;;;;4975724;28;20222;-86
2022/03/03 12:26:02;;;;;;;13.73;10.10;;;10.80;14.40;;;;;;4971227;28;20284;-86
2022/03/03 12:28:45;;;;;;;15.23;10.77;;;10.70;14.40;;;;;;4992034;28;20254;-87
2022/03/03 12:31:24;;;;;;;12.40;10.02;;;10.70;14.30;;;;;;5021138;28;20254;-85
2022/03/03 12:34:08;;;;;;;14.10;9.57;;;10.60;14.30;;;;;;5033907;28;20599;-86
2022/03/03 12:36:44;;;;;;;15.48;9.60;;;10.60;15.60;;;;;;5011320;28;20269;-87
2022/03/03 12:39:12;;;;;;;17.27;10.82;;;10.60;14.90;;;;;;5020716;28;20225;-86
2022/03/03 12:41:41;;;;;;;13.65;10.02;;;10.60;14.80;;;;;;5000245;28;20232;-85
2022/03/03 12:44:12;;;;;;;14.45;9.60;;;10.30;14.40;;;;;;5038801;28;20223;-87
2022/03/03 12:46:41;;;;;;;14.55;9.85;;;10.30;15.20;;;;;;5040054;28;20579;-86
2022/03/03 12:49:12;;;;;;;14.02;9.68;;;10.10;14.30;;;;;;5016576;28;20237;-86
2022/03/03 12:54:37;;;;;;;14.27;9.73;;;10.10;14.20;;;;;;5083905;27;20631;-86
2022/03/03 12:57:08;;;;;;;12.52;9.57;;;10.20;15.60;;;;;;5026985;28;20202;-87
2022/03/03 12:59:36;;;;;;;11.60;9.55;;;10.40;14.70;;;;;;5031946;28;20210;-87
2022/03/03 13:02:03;;;;;;;12.90;9.25;;;10.40;14.60;;;;;;5013692;28;20230;-86
2022/03/03 13:04:30;;;;;;;19.30;9.50;;;10.40;13.70;;;;;;5014596;28;20259;-88
2022/03/03 13:07:11;;;;;;;14.90;9.05;;;10.40;13.80;;;;;;5014341;28;20506;-88
2022/03/03 13:09:51;;;;;;;11.30;9.57;;;10.10;13.90;;;;;;5022097;28;20199;-89
2022/03/03 13:12:19;;;;;;;11.07;8.98;;;10.20;13.60;;;;;;5041632;28;20266;-90
2022/03/03 13:14:56;;;;;;;14.40;8.88;;;10.30;14.10;;;;;;5058901;28;20300;-88
2022/03/03 13:17:24;;;;;;;10.45;8.63;;;10.40;14.30;;;;;;5021049;28;20276;-87
2022/03/03 13:20:04;;;;;;;16.58;9.77;;;10.30;14.60;;;;;;5022244;28;20227;-87
2022/03/03 13:22:36;;;;;;;13.30;8.82;;;10.10;15.40;;;;;;5036653;28;20198;-88
2022/03/03 13:25:25;;;;;;;12.20;9.32;;;10.20;14.90;;;;;;5033723;28;20230;-87
2022/03/03 13:27:53;;;;;;;11.73;8.93;;;9.90;16.50;;;;;;5031962;28;20209;-89
2022/03/03 13:30:21;;;;;;;14.10;9.27;;;9.80;15.90;;;;;;5033095;28;20233;-88
2022/03/03 13:32:49;;;;;;;14.80;9.25;;;9.90;16.70;;;;;;5035500;28;20219;-86
2022/03/03 13:35:18;;;;;;;11.57;9.23;;;10.00;14.90;;;;;;5030252;28;20291;-88
2022/03/03 13:37:45;;;;;;;12.85;9.35;;;10.00;14.70;;;;;;5015553;28;20550;-88
2022/03/03 13:40:27;;;;;;;11.20;9.02;;;9.90;16.80;;;;;;5013525;28;20801;-87
2022/03/03 13:42:56;;;;;;;12.73;9.82;;;9.80;16.60;;;;;;5016937;28;20278;-88
2022/03/03 13:45:28;;;;;;;17.05;13.35;;;9.90;16.20;;;;;;5014968;28;20297;-86
2022/03/03 13:48:07;;;;;;;15.85;9.18;;;9.60;16.10;;;;;;5012900;28;20196;-87
2022/03/03 13:50:35;;;;;;;12.40;9.82;;;9.60;16.50;;;;;;5027065;28;20231;-86
2022/03/03 13:53:27;;;;;;;11.60;9.43;;;9.70;16.10;;;;;;5037140;28;20225;-93
2022/03/03 13:56:13;;;;;;;11.13;8.90;;;9.70;16.20;;;;;;5030892;28;20229;-89
2022/03/03 13:58:40;;;;;;;11.10;8.88;;;9.70;15.90;;;;;;5034125;28;20207;-89
2022/03/03 14:01:25;;;;;;;17.98;9.60;;;9.80;16.30;;;;;;5033091;28;20222;-88
2022/03/03 14:03:53;;;;;;;17.98;10.07;;;9.70;16.30;;;;;;5029872;28;20258;-89
2022/03/03 14:06:20;;;;;;;14.82;9.80;;;9.80;16.50;;;;;;5020702;28;20229;-89
2022/03/03 14:08:49;;;;;;;11.85;9.43;;;9.70;16.30;;;;;;5021424;28;20210;-90
2022/03/03 14:11:56;;;;;;;14.23;10.45;;;9.70;16.30;;;;;;5037551;28;20219;-89
2022/03/03 14:14:25;;;;;;;12.80;9.45;;;9.30;15.90;;;;;;5016516;28;20250;-89
2022/03/03 14:16:53;;;;;;;11.93;9.27;;;9.50;16.10;;;;;;5019752;28;20219;-89
2022/03/03 14:19:20;;;;;;;14.43;9.65;;;9.40;16.40;;;;;;5023067;28;20207;-90
2022/03/03 14:21:47;;;;;;;12.80;9.60;;;9.50;16.60;;;;;;5020380;28;20262;-89
2022/03/03 14:24:17;;;;;;;13.02;9.50;;;9.50;16.10;;;;;;5021487;28;20294;-88
2022/03/03 14:26:56;;;;;;;13.27;9.63;;;9.50;16.00;;;;;;5017808;28;20219;-90
2022/03/03 14:29:23;;;;;;;13.30;9.80;;;9.50;16.30;;;;;;5023086;28;20668;-90
2022/03/03 14:31:51;;;;;;;13.32;9.10;;;9.50;16.50;;;;;;5021858;28;20215;-90
2022/03/03 14:34:18;;;;;;;14.63;9.27;;;9.50;16.40;;;;;;5039038;28;20366;-90
2022/03/03 14:36:46;;;;;;;13.95;9.23;;;9.50;17.20;;;;;;5024732;28;20309;-90
2022/03/03 14:39:16;;;;;;;14.88;8.48;;;9.60;15.70;;;;;;5020047;28;20228;-89
2022/03/03 14:41:44;;;;;;;10.52;8.55;;;9.50;15.70;;;;;;5020542;28;20214;-89
2022/03/03 14:44:12;;;;;;;11.90;8.63;;;9.50;15.60;;;;;;5031230;28;20206;-87
2022/03/03 14:46:45;;;;;;;14.18;8.48;;;9.40;15.60;;;;;;5063349;28;20672;-88
2022/03/03 14:56:10;;;;;;;12.45;8.90;;;9.50;15.40;;;;;;5030335;28;20211;-88
2022/03/03 14:58:39;;;;;;;10.60;8.20;;;9.40;15.50;;;;;;5018566;28;20307;-90
2022/03/03 15:01:27;;;;;;;10.57;7.88;;;9.30;14.60;;;;;;5023990;28;20318;-88
2022/03/03 15:04:17;;;;;;;9.68;7.95;;;9.50;14.70;;;;;;5025134;28;20203;-88
2022/03/03 15:06:47;;;;;;;10.30;7.78;;;9.80;14.60;;;;;;5026068;28;20224;-88
2022/03/03 15:09:28;;;;;;;13.60;7.75;;;9.80;14.40;;;;;;5012312;28;20204;-88
2022/03/03 15:14:39;;;;;;;9.23;7.15;;;9.90;13.30;;;;;;5005936;28;20231;-88
2022/03/03 15:17:08;;;;;;;9.27;7.07;;;9.90;12.90;;;;;;5023153;28;20200;-89
2022/03/03 16:34:57;;;;;;;8.88;4.68;;;8.20;10.70;;;;;;5038450;28;20234;-89
2022/03/03 16:37:50;;;;;;;5.93;4.93;;;8.20;10.80;;;;;;5046535;28;20209;-89
2022/03/03 16:40:18;;;;;;;8.77;5.03;;;8.00;11.30;;;;;;5056029;28;20316;-89
2022/03/03 16:43:13;;;;;;;6.60;4.72;;;7.90;11.70;;;;;;5058217;28;20205;-89
2022/03/03 16:45:43;;;;;;;6.55;4.63;;;7.80;11.70;;;;;;5041594;28;20233;-89
2022/03/03 16:48:11;;;;;;;6.45;5.15;;;7.70;12.30;;;;;;5053706;28;20634;-89
2022/03/03 16:50:39;;;;;;;9.45;5.40;;;7.60;12.20;;;;;;5044849;28;20202;-90
2022/03/03 16:53:08;;;;;;;10.32;5.38;;;7.50;12.90;;;;;;5030116;28;20297;-90
2022/03/03 16:55:38;;;;;;;8.43;5.70;;;7.30;13.30;;;;;;5052111;28;20201;-92
2022/03/03 16:58:05;;;;;;;7.57;5.50;;;7.20;13.30;;;;;;5062429;28;20217;-91
2022/03/03 17:00:32;;;;;;;10.73;5.53;;;7.10;13.50;;;;;;5064094;28;20289;-91
2022/03/03 17:02:59;;;;;;;9.50;5.40;;;7.10;13.70;;;;;;5038256;28;20200;-89